createdAt,value
2023-04-16T00:01:51.422Z,39.80
2023-04-16T00:04:18.743Z,39.87
2023-04-16T00:06:45.798Z,36.77
2023-04-16T00:09:12.549Z,35.93
2023-04-16T00:11:39.301Z,39.57
2023-04-16T00:14:06.112Z,39.30
2023-04-16T00:16:33.137Z,37.10
2023-04-16T00:18:59.917Z,39.67
2023-04-16T00:21:26.642Z,38.80
2023-04-16T00:23:53.503Z,38.03
2023-04-16T00:26:20.529Z,38.40
2023-04-16T00:28:47.282Z,39.73
2023-04-16T00:31:14.168Z,38.77
2023-04-16T00:33:41.056Z,39.07
2023-04-16T00:36:07.971Z,40.90
2023-04-16T00:38:35.028Z,39.70
2023-04-16T00:41:01.753Z,37.83
2023-04-16T00:43:28.703Z,38.50
2023-04-16T00:45:57.355Z,40.17
2023-04-16T00:48:24.768Z,40.60
2023-04-16T00:50:51.537Z,41.20
2023-04-16T00:53:18.332Z,39.30
2023-04-16T00:55:45.960Z,40.13
2023-04-16T00:58:13.092Z,38.40
2023-04-16T01:00:39.886Z,38.80
2023-04-16T01:03:06.789Z,38.33
2023-04-16T01:05:33.670Z,37.90
2023-04-16T01:08:03.280Z,38.57
2023-04-16T01:10:30.013Z,39.77
2023-04-16T01:12:56.712Z,40.23
2023-04-16T01:15:23.444Z,40.17
2023-04-16T01:17:51.515Z,38.77
2023-04-16T01:20:18.379Z,39.13
2023-04-16T01:22:45.125Z,39.47
2023-04-16T01:25:15.672Z,37.60
2023-04-16T01:27:42.584Z,38.40
2023-04-16T01:30:09.779Z,40.10
2023-04-16T01:32:36.556Z,38.37
2023-04-16T01:35:03.440Z,38.17
2023-04-16T01:37:31.047Z,34.47
2023-04-16T01:39:57.906Z,36.77
2023-04-16T01:42:24.668Z,36.83
2023-04-16T01:44:51.386Z,36.10
2023-04-16T01:47:18.294Z,34.17
2023-04-16T01:49:45.718Z,35.40
2023-04-16T01:52:12.489Z,36.60
2023-04-16T01:54:39.212Z,35.77
2023-04-16T01:57:05.968Z,34.33
2023-04-16T01:59:32.658Z,35.20
2023-04-16T02:02:13.644Z,32.97
2023-04-16T02:04:42.406Z,32.43
2023-04-16T02:07:09.805Z,31.90
2023-04-16T02:09:38.151Z,32.50
2023-04-16T02:12:05.945Z,33.60
2023-04-16T02:14:33.395Z,32.73
2023-04-16T02:17:00.718Z,31.40
2023-04-16T02:19:27.636Z,30.80
2023-04-16T02:21:54.991Z,31.20
2023-04-16T02:24:22.194Z,31.20
2023-04-16T02:26:49.330Z,31.87
2023-04-16T02:29:16.759Z,29.83
2023-04-16T02:31:44.377Z,30.40
2023-04-16T02:34:11.604Z,29.63
2023-04-16T02:36:38.718Z,27.50
2023-04-16T02:39:05.697Z,32.47
2023-04-16T02:41:32.851Z,29.33
2023-04-16T02:43:59.824Z,27.53
2023-04-16T02:46:27.150Z,29.03
2023-04-16T02:48:54.360Z,29.63
2023-04-16T02:51:21.530Z,30.23
2023-04-16T02:53:48.717Z,28.93
2023-04-16T02:56:15.876Z,27.20
2023-04-16T02:58:43.106Z,28.37
2023-04-16T03:01:10.392Z,27.90
2023-04-16T03:03:37.580Z,28.20
2023-04-16T03:06:04.564Z,28.07
2023-04-16T03:08:31.718Z,29.70
2023-04-16T03:10:58.521Z,31.40
2023-04-16T03:13:25.963Z,29.77
2023-04-16T03:15:53.143Z,29.27
2023-04-16T03:18:19.913Z,30.70
2023-04-16T03:20:47.054Z,31.40
2023-04-16T03:23:14.234Z,32.50
2023-04-16T03:25:41.019Z,31.90
2023-04-16T03:28:07.749Z,34.90
2023-04-16T03:30:34.864Z,34.90
2023-04-16T03:33:02.119Z,32.77
2023-04-16T03:35:29.229Z,37.00
2023-04-16T03:37:56.414Z,36.77
2023-04-16T03:40:23.602Z,36.40
2023-04-16T03:42:50.817Z,34.30
2023-04-16T03:45:17.718Z,36.07
2023-04-16T03:47:45.167Z,35.77
2023-04-16T03:50:13.348Z,34.47
2023-04-16T03:52:40.921Z,35.80
2023-04-16T03:55:08.143Z,34.13
2023-04-16T03:57:35.378Z,31.60
2023-04-16T04:00:02.595Z,32.03
2023-04-16T04:02:29.937Z,33.60
2023-04-16T04:04:56.817Z,33.00
2023-04-16T04:07:24.040Z,31.90
2023-04-16T04:09:51.257Z,32.90
2023-04-16T04:12:18.376Z,33.10
2023-04-16T04:14:45.198Z,33.23
2023-04-16T04:17:11.940Z,34.57
2023-04-16T04:19:42.345Z,33.23
2023-04-16T04:22:14.495Z,33.10
2023-04-16T04:24:41.619Z,33.30
2023-04-16T04:27:08.816Z,34.13
2023-04-16T04:29:35.950Z,31.90
2023-04-16T04:32:03.135Z,30.97
2023-04-16T04:34:30.526Z,32.17
2023-04-16T04:36:57.714Z,32.97
2023-04-16T04:39:24.509Z,33.03
2023-04-16T04:41:51.666Z,31.40
2023-04-16T04:44:18.822Z,33.73
2023-04-16T04:46:45.947Z,32.77
2023-04-16T04:49:13.137Z,33.07
2023-04-16T04:51:40.572Z,33.00
2023-04-16T04:54:07.668Z,33.77
2023-04-16T04:56:34.879Z,34.20
2023-04-16T04:59:01.969Z,36.07
2023-04-16T05:01:28.751Z,33.50
2023-04-16T05:03:56.330Z,35.07
2023-04-16T05:06:23.560Z,33.87
2023-04-16T05:08:50.803Z,33.20
2023-04-16T05:11:17.906Z,33.10
2023-04-16T05:13:45.074Z,35.30
2023-04-16T05:16:12.265Z,35.13
2023-04-16T05:18:38.988Z,34.03
2023-04-16T05:21:05.953Z,34.90
2023-04-16T05:23:33.073Z,35.97
2023-04-16T05:26:00.195Z,34.50
2023-04-16T05:28:27.341Z,37.07
2023-04-16T05:30:54.567Z,34.80
2023-04-16T05:33:21.699Z,34.87
2023-04-16T05:35:48.528Z,34.87
2023-04-16T05:38:15.714Z,34.87
2023-04-16T05:40:42.401Z,34.10
2023-04-16T05:43:09.581Z,35.27
2023-04-16T05:45:40.868Z,33.90
2023-04-16T05:48:11.319Z,32.57
2023-04-16T05:50:38.378Z,35.30
2023-04-16T05:53:06.679Z,34.60
2023-04-16T05:55:33.789Z,34.53
2023-04-16T05:58:01.154Z,34.00
2023-04-16T06:00:28.345Z,31.50
2023-04-16T06:02:55.698Z,32.10
2023-04-16T06:05:22.992Z,33.93
2023-04-16T06:07:49.783Z,33.83
2023-04-16T06:10:17.024Z,31.80
2023-04-16T06:12:44.004Z,32.80
2023-04-16T06:15:11.293Z,30.10
2023-04-16T06:17:38.497Z,30.73
2023-04-16T06:20:05.996Z,31.27
2023-04-16T06:22:33.148Z,32.70
2023-04-16T06:25:00.400Z,32.70
2023-04-16T06:27:27.597Z,31.27
2023-04-16T06:29:54.789Z,30.93
2023-04-16T06:32:23.127Z,32.83
2023-04-16T06:34:50.378Z,29.67
2023-04-16T06:37:17.546Z,32.00
2023-04-16T06:39:44.710Z,32.83
2023-04-16T06:42:11.893Z,32.07
2023-04-16T06:44:38.665Z,33.70
2023-04-16T06:47:05.535Z,33.13
2023-04-16T06:49:32.484Z,32.40
2023-04-16T06:51:59.677Z,30.83
2023-04-16T06:54:26.840Z,32.43
2023-04-16T06:56:53.957Z,33.17
2023-04-16T06:59:21.055Z,34.33
2023-04-16T07:01:48.257Z,32.70
2023-04-16T07:04:15.137Z,32.30
2023-04-16T07:06:42.363Z,31.87
2023-04-16T07:09:09.775Z,32.77
2023-04-16T07:11:37.178Z,31.07
2023-04-16T07:14:04.467Z,32.20
2023-04-16T07:16:31.729Z,32.30
2023-04-16T07:18:58.962Z,30.40
2023-04-16T07:21:26.426Z,31.63
2023-04-16T07:23:53.898Z,30.50
2023-04-16T07:26:21.078Z,31.10
2023-04-16T07:28:47.837Z,30.80
2023-04-16T07:31:14.840Z,32.10
2023-04-16T07:33:42.068Z,30.13
2023-04-16T07:36:09.214Z,30.47
2023-04-16T07:38:36.325Z,31.17
2023-04-16T07:41:03.553Z,30.00
2023-04-16T07:43:30.756Z,30.40
2023-04-16T07:45:57.563Z,29.90
2023-04-16T07:48:24.760Z,28.33
2023-04-16T07:50:52.014Z,28.63
2023-04-16T07:53:19.197Z,30.50
2023-04-16T07:55:46.559Z,30.10
2023-04-16T07:58:13.766Z,29.70
2023-04-16T08:00:40.874Z,29.77
2023-04-16T08:03:08.206Z,28.17
2023-04-16T08:05:36.143Z,28.53
2023-04-16T08:08:03.345Z,28.63
2023-04-16T08:10:30.648Z,27.77
2023-04-16T08:12:57.376Z,28.17
2023-04-16T08:15:24.182Z,28.83
2023-04-16T08:17:51.428Z,30.40
2023-04-16T08:20:19.388Z,30.23
2023-04-16T08:22:46.992Z,30.53
2023-04-16T08:25:14.018Z,28.47
2023-04-16T08:27:40.904Z,30.97
2023-04-16T08:30:08.239Z,28.00
2023-04-16T08:32:35.151Z,29.00
2023-04-16T08:35:02.147Z,26.90
2023-04-16T08:37:28.927Z,28.33
2023-04-16T08:39:55.835Z,28.30
2023-04-16T08:42:37.358Z,27.60
2023-04-16T08:45:09.296Z,29.47
2023-04-16T08:47:39.472Z,27.60
2023-04-16T08:50:08.138Z,27.70
2023-04-16T08:52:39.937Z,27.70
2023-04-16T08:55:09.426Z,25.87
2023-04-16T08:57:47.524Z,26.47
2023-04-16T09:00:15.040Z,25.73
2023-04-16T09:02:43.028Z,26.20
2023-04-16T09:05:11.357Z,25.47
2023-04-16T09:07:38.647Z,26.77
2023-04-16T09:10:07.038Z,27.20
2023-04-16T09:12:35.209Z,27.83
2023-04-16T09:15:03.474Z,26.73
2023-04-16T09:17:30.370Z,27.10
2023-04-16T09:19:57.185Z,27.00
2023-04-16T09:22:24.344Z,25.53
2023-04-16T09:24:51.086Z,26.80
2023-04-16T09:27:17.912Z,26.97
2023-04-16T09:29:44.856Z,27.17
2023-04-16T09:32:12.607Z,27.43
2023-04-16T09:34:57.479Z,27.07
2023-04-16T09:37:29.947Z,25.90
2023-04-16T09:40:01.388Z,30.10
2023-04-16T09:42:30.982Z,26.97
2023-04-16T09:45:00.790Z,27.63
2023-04-16T09:47:42.761Z,24.97
2023-04-16T09:50:16.442Z,25.70
2023-04-16T09:52:48.114Z,26.00
2023-04-16T09:55:15.409Z,24.70
2023-04-16T09:57:42.189Z,24.53
2023-04-16T10:00:10.319Z,24.40
2023-04-16T10:02:41.736Z,25.30
2023-04-16T10:05:09.428Z,23.53
2023-04-16T10:07:37.356Z,25.43
2023-04-16T10:10:05.323Z,24.80
2023-04-16T10:12:32.870Z,23.33
2023-04-16T10:14:59.983Z,24.57
2023-04-16T10:17:30.024Z,25.20
2023-04-16T10:19:58.524Z,23.10
2023-04-16T10:22:26.325Z,24.80
2023-04-16T10:24:54.103Z,24.67
2023-04-16T10:27:21.237Z,24.10
2023-04-16T10:29:49.534Z,24.30
2023-04-16T10:32:18.509Z,25.53
2023-04-16T10:34:46.997Z,24.03
2023-04-16T10:37:15.689Z,24.17
2023-04-16T10:39:42.488Z,23.70
2023-04-16T10:42:10.221Z,23.83
2023-04-16T10:44:37.345Z,23.07
2023-04-16T10:47:11.683Z,22.47
2023-04-16T10:49:38.573Z,23.57
2023-04-16T10:52:12.341Z,24.53
2023-04-16T10:54:39.904Z,24.80
2023-04-16T10:57:14.919Z,23.77
2023-04-16T10:59:43.906Z,24.40
2023-04-16T11:02:15.880Z,25.37
2023-04-16T11:04:47.319Z,24.20
2023-04-16T11:07:32.669Z,24.50
2023-04-16T11:10:02.105Z,24.50
2023-04-16T11:12:47.045Z,25.23
2023-04-16T11:15:15.462Z,22.93
2023-04-16T11:17:52.119Z,22.23
2023-04-16T11:20:22.793Z,25.40
2023-04-16T11:22:50.943Z,23.23
2023-04-16T11:25:24.504Z,23.00
2023-04-16T11:27:53.220Z,23.87
2023-04-16T11:30:31.971Z,23.57
2023-04-16T11:32:58.938Z,23.67
2023-04-16T11:35:25.774Z,30.60
2023-04-16T11:37:57.101Z,24.47
2023-04-16T11:40:24.466Z,23.80
2023-04-16T11:42:51.234Z,23.20
2023-04-16T11:45:20.689Z,23.17
2023-04-16T11:47:53.365Z,23.97
2023-04-16T11:50:25.255Z,22.77
2023-04-16T11:52:54.026Z,24.60
2023-04-16T11:55:21.527Z,23.10
2023-04-16T11:57:48.625Z,25.73
2023-04-16T12:00:16.061Z,23.40
2023-04-16T12:02:55.551Z,23.33
2023-04-16T12:05:32.011Z,25.33
2023-04-16T12:08:00.948Z,25.47
2023-04-16T12:10:28.232Z,23.70
2023-04-16T12:12:55.133Z,24.90
2023-04-16T12:15:21.873Z,24.50
2023-04-16T12:17:50.503Z,24.00
2023-04-16T12:20:17.338Z,23.57
2023-04-16T12:22:49.668Z,24.07
2023-04-16T12:25:18.231Z,25.03
2023-04-16T12:27:52.368Z,25.80
2023-04-16T12:30:22.915Z,25.00
2023-04-16T12:33:13.035Z,25.13
2023-04-16T12:35:41.846Z,24.43
2023-04-16T12:38:08.595Z,24.33
2023-04-16T12:40:36.242Z,24.07
2023-04-16T12:43:03.010Z,25.60
2023-04-16T12:45:29.878Z,25.43
2023-04-16T12:47:57.460Z,22.37
2023-04-16T12:50:24.512Z,22.93
2023-04-16T12:52:51.653Z,23.53
2023-04-16T12:55:18.833Z,22.37
2023-04-16T12:57:45.697Z,22.83
2023-04-16T13:00:14.696Z,22.37
2023-04-16T13:02:41.548Z,23.50
2023-04-16T13:05:08.953Z,23.97
2023-04-16T13:07:36.217Z,22.60
2023-04-16T13:10:03.114Z,22.17
2023-04-16T13:12:29.907Z,22.97
2023-04-16T13:14:56.652Z,22.30
2023-04-16T13:17:23.405Z,22.60
2023-04-16T13:19:50.243Z,21.60
2023-04-16T13:22:16.994Z,21.07
2023-04-16T13:24:43.726Z,22.07
2023-04-16T13:27:11.367Z,21.50
2023-04-16T13:29:38.192Z,20.40
2023-04-16T13:32:05.391Z,21.33
2023-04-16T13:34:32.831Z,21.67
2023-04-16T13:36:59.621Z,22.33
2023-04-16T13:39:26.609Z,22.90
2023-04-16T13:41:53.349Z,22.67
2023-04-16T13:44:20.455Z,21.30
2023-04-16T13:46:47.874Z,22.17
2023-04-16T13:49:15.076Z,22.27
2023-04-16T13:51:44.903Z,21.83
2023-04-16T13:54:11.961Z,23.60
2023-04-16T13:56:39.440Z,23.77
2023-04-16T13:59:06.341Z,22.57
2023-04-16T14:01:33.664Z,23.33
2023-04-16T14:04:06.432Z,23.27
2023-04-16T14:06:34.517Z,23.53
2023-04-16T14:09:01.875Z,22.60
2023-04-16T14:11:28.849Z,23.37
2023-04-16T14:13:55.903Z,22.87
2023-04-16T14:16:22.954Z,23.80
2023-04-16T14:18:51.725Z,22.43
2023-04-16T14:21:18.672Z,23.17
2023-04-16T14:23:45.601Z,23.97
2023-04-16T14:26:12.467Z,24.23
2023-04-16T14:28:40.825Z,24.07
2023-04-16T14:31:07.604Z,24.00
2023-04-16T14:33:34.398Z,22.83
2023-04-16T14:36:02.941Z,23.20
2023-04-16T14:38:31.210Z,25.33
2023-04-16T14:40:58.119Z,23.00
2023-04-16T14:43:24.870Z,23.80
2023-04-16T14:45:52.730Z,22.50
2023-04-16T14:48:19.722Z,21.80
2023-04-16T14:50:46.604Z,21.60
2023-04-16T14:53:13.788Z,20.60
2023-04-16T14:55:40.777Z,20.70
2023-04-16T14:58:07.605Z,21.20
2023-04-16T15:00:37.815Z,20.50
2023-04-16T15:03:05.139Z,21.10
2023-04-16T15:05:32.068Z,21.37
2023-04-16T15:07:58.805Z,20.33
2023-04-16T15:10:25.548Z,20.70
2023-04-16T15:12:52.299Z,20.23
2023-04-16T15:15:19.061Z,19.33
2023-04-16T15:17:46.067Z,21.30
2023-04-16T15:20:13.446Z,19.77
2023-04-16T15:22:40.514Z,21.70
2023-04-16T15:25:07.845Z,19.27
2023-04-16T15:27:34.695Z,20.83
2023-04-16T15:30:01.366Z,20.30
2023-04-16T15:32:28.138Z,20.03
2023-04-16T15:34:54.842Z,18.90
2023-04-16T15:37:21.632Z,21.27
2023-04-16T15:39:48.517Z,22.03
2023-04-16T15:42:15.689Z,21.60
2023-04-16T15:44:42.475Z,20.30
2023-04-16T15:47:09.303Z,21.47
2023-04-16T15:49:36.345Z,19.60
2023-04-16T15:52:03.459Z,19.20
2023-04-16T15:54:31.780Z,19.47
2023-04-16T15:56:59.127Z,19.70
2023-04-16T15:59:29.121Z,22.20
2023-04-16T16:01:55.970Z,19.57
2023-04-16T16:04:23.351Z,18.70
2023-04-16T16:06:51.092Z,20.47
2023-04-16T16:09:19.733Z,19.10
2023-04-16T16:11:46.546Z,19.80
2023-04-16T16:14:14.913Z,21.83
2023-04-16T16:16:42.608Z,21.13
2023-04-16T16:19:09.784Z,19.67
2023-04-16T16:21:37.012Z,20.50
2023-04-16T16:24:03.977Z,19.87
2023-04-16T16:26:30.699Z,21.07
2023-04-16T16:28:57.501Z,19.80
2023-04-16T16:31:24.601Z,19.83
2023-04-16T16:33:51.498Z,19.93
2023-04-16T16:36:18.274Z,20.37
2023-04-16T16:38:47.313Z,21.40
2023-04-16T16:41:14.271Z,20.23
2023-04-16T16:43:41.089Z,19.90
2023-04-16T16:46:07.883Z,20.07
2023-04-16T16:48:34.550Z,18.77
2023-04-16T16:51:01.386Z,19.20
2023-04-16T16:53:28.147Z,21.57
2023-04-16T16:55:54.911Z,22.10
2023-04-16T16:58:21.876Z,21.33
2023-04-16T17:00:48.750Z,19.80
2023-04-16T17:03:15.734Z,22.10
2023-04-16T17:05:42.567Z,21.47
2023-04-16T17:08:09.263Z,21.60
2023-04-16T17:10:36.299Z,21.87
2023-04-16T17:13:03.150Z,20.37
2023-04-16T17:15:29.920Z,21.70
2023-04-16T17:17:57.167Z,21.83
2023-04-16T17:20:24.048Z,19.07
2023-04-16T17:22:51.245Z,20.87
2023-04-16T17:25:18.139Z,20.63
2023-04-16T17:27:44.972Z,21.77
2023-04-16T17:30:11.929Z,20.90
2023-04-16T17:32:38.741Z,21.30
2023-04-16T17:35:06.868Z,20.70
2023-04-16T17:37:34.199Z,21.17
2023-04-16T17:40:01.121Z,21.13
2023-04-16T17:42:27.942Z,22.33
2023-04-16T17:44:54.745Z,22.33
2023-04-16T17:47:21.624Z,22.93
2023-04-16T17:49:48.460Z,22.33
2023-04-16T17:52:15.271Z,22.13
2023-04-16T17:54:42.439Z,22.20
2023-04-16T17:57:09.227Z,22.77
2023-04-16T17:59:35.929Z,22.37
2023-04-16T18:02:02.791Z,22.93
2023-04-16T18:04:29.824Z,23.07
2023-04-16T18:06:56.632Z,23.67
2023-04-16T18:09:23.468Z,22.60
2023-04-16T18:11:50.266Z,23.30
2023-04-16T18:14:20.055Z,21.70
2023-04-16T18:16:48.056Z,23.10
2023-04-16T18:19:15.999Z,22.50
2023-04-16T18:21:43.256Z,23.73
2023-04-16T18:24:10.513Z,23.80
2023-04-16T18:26:39.711Z,23.47
2023-04-16T18:29:07.643Z,22.67
2023-04-16T18:31:34.449Z,23.80
2023-04-16T18:34:01.353Z,23.43
2023-04-16T18:36:28.192Z,24.00
2023-04-16T18:39:02.209Z,24.20
2023-04-16T18:41:30.909Z,23.97
2023-04-16T18:43:57.766Z,25.17
2023-04-16T18:46:25.326Z,23.10
2023-04-16T18:48:52.271Z,24.40
2023-04-16T18:51:19.066Z,26.03
2023-04-16T18:53:45.974Z,23.13
2023-04-16T18:56:13.004Z,23.93
2023-04-16T18:58:39.832Z,23.93
2023-04-16T19:01:11.032Z,23.87
2023-04-16T19:03:38.571Z,26.30
2023-04-16T19:06:05.993Z,24.80
2023-04-16T19:08:32.953Z,23.17
2023-04-16T19:11:00.014Z,24.70
2023-04-16T19:13:27.010Z,24.90
2023-04-16T19:16:01.491Z,24.90
2023-04-16T19:18:28.582Z,24.20
2023-04-16T19:21:01.828Z,24.43
2023-04-16T19:23:29.200Z,23.20
2023-04-16T19:25:56.757Z,24.90
2023-04-16T19:28:24.572Z,25.20
2023-04-16T19:30:52.667Z,24.10
2023-04-16T19:33:19.756Z,24.10
2023-04-16T19:35:47.264Z,23.93
2023-04-16T19:38:14.083Z,23.77
2023-04-16T19:40:43.552Z,23.30
2023-04-16T19:43:10.399Z,24.00
2023-04-16T19:45:46.823Z,24.20
2023-04-16T19:48:14.479Z,25.33
2023-04-16T19:50:42.347Z,24.40
2023-04-16T19:53:09.169Z,25.67
2023-04-16T19:55:36.557Z,24.13
2023-04-16T19:58:06.501Z,24.33
2023-04-16T20:00:42.401Z,24.77
2023-04-16T20:03:09.665Z,24.47
2023-04-16T20:05:36.471Z,23.60
2023-04-16T20:08:03.281Z,23.30
2023-04-16T20:10:31.648Z,25.50
2023-04-16T20:12:58.623Z,23.93
2023-04-16T20:15:25.853Z,22.90
2023-04-16T20:17:53.300Z,23.83
2023-04-16T20:20:22.597Z,22.23
2023-04-16T20:22:49.447Z,24.30
2023-04-16T20:25:18.944Z,23.10
2023-04-16T20:27:45.846Z,23.17
2023-04-16T20:30:13.411Z,22.90
2023-04-16T20:32:40.266Z,22.83
2023-04-16T20:35:10.437Z,22.27
2023-04-16T20:37:38.558Z,23.30
2023-04-16T20:40:08.763Z,22.93
2023-04-16T20:42:35.937Z,21.87
2023-04-16T20:45:02.693Z,22.40
2023-04-16T20:47:29.918Z,23.07
2023-04-16T20:49:56.667Z,24.00
2023-04-16T20:52:23.367Z,23.00
2023-04-16T20:54:52.245Z,23.90
2023-04-16T20:57:19.117Z,23.53
2023-04-16T20:59:46.062Z,24.17
2023-04-16T21:02:12.984Z,22.73
2023-04-16T21:04:39.961Z,24.60
2023-04-16T21:07:07.139Z,22.20
2023-04-16T21:09:33.871Z,23.40
2023-04-16T21:12:01.510Z,24.17
2023-04-16T21:14:28.266Z,24.17
2023-04-16T21:16:55.097Z,22.57
2023-04-16T21:19:22.481Z,22.40
2023-04-16T21:21:49.229Z,23.57
2023-04-16T21:24:16.094Z,24.30
2023-04-16T21:26:42.811Z,23.20
2023-04-16T21:29:09.692Z,23.40
2023-04-16T21:31:36.625Z,23.10
2023-04-16T21:34:03.364Z,22.53
2023-04-16T21:36:32.045Z,22.40
2023-04-16T21:38:58.916Z,22.77
2023-04-16T21:41:26.440Z,20.70
2023-04-16T21:43:53.356Z,21.90
2023-04-16T21:46:20.968Z,21.97
2023-04-16T21:48:48.519Z,21.40
2023-04-16T21:51:15.779Z,21.67
2023-04-16T21:53:42.573Z,21.33
2023-04-16T21:56:09.365Z,22.60
2023-04-16T21:58:36.054Z,20.97
2023-04-16T22:01:02.934Z,22.03
2023-04-16T22:03:31.114Z,22.73
2023-04-16T22:06:01.471Z,21.57
2023-04-16T22:08:32.019Z,21.57
2023-04-16T22:10:59.866Z,21.40
2023-04-16T22:13:27.765Z,20.53
2023-04-16T22:15:55.735Z,21.93
2023-04-16T22:18:26.755Z,21.67
2023-04-16T22:20:56.587Z,21.40
2023-04-16T22:23:23.655Z,22.37
2023-04-16T22:25:50.939Z,22.60
2023-04-16T22:28:17.692Z,22.00
2023-04-16T22:30:44.451Z,24.90
2023-04-16T22:33:11.425Z,25.23
2023-04-16T22:35:38.225Z,23.50
2023-04-16T22:38:05.416Z,24.50
2023-04-16T22:40:32.227Z,22.43
2023-04-16T22:42:59.016Z,25.73
2023-04-16T22:45:26.114Z,27.33
2023-04-16T22:47:53.112Z,26.30
2023-04-16T22:50:20.085Z,28.50
2023-04-16T22:52:46.839Z,25.37
2023-04-16T22:55:13.524Z,25.80
2023-04-16T22:57:40.582Z,27.50
2023-04-16T23:00:11.257Z,26.20
2023-04-16T23:02:38.011Z,26.53
2023-04-16T23:05:05.311Z,27.70
2023-04-16T23:07:32.046Z,27.67
2023-04-16T23:09:58.717Z,28.10
2023-04-16T23:12:25.563Z,26.70
2023-04-16T23:14:53.138Z,26.47
2023-04-16T23:17:19.827Z,25.53
2023-04-16T23:19:46.966Z,27.30
2023-04-16T23:22:13.618Z,27.43
2023-04-16T23:24:40.482Z,28.27
2023-04-16T23:27:07.168Z,26.90
2023-04-16T23:29:33.849Z,26.17
2023-04-16T23:32:00.552Z,26.60
2023-04-16T23:34:27.278Z,27.17
2023-04-16T23:36:53.945Z,29.10
2023-04-16T23:39:20.653Z,27.90
2023-04-16T23:41:47.773Z,27.37
2023-04-16T23:44:16.777Z,27.57
2023-04-16T23:46:43.606Z,28.50
2023-04-16T23:49:10.696Z,26.57
2023-04-16T23:51:37.650Z,27.40
2023-04-16T23:54:04.492Z,29.03
2023-04-16T23:56:31.328Z,27.50
2023-04-16T23:58:58.532Z,28.43
